sensor_id;sensor_type;location;lat;lon;timestamp;temperature;humidity
73750;SHT30;62058;48.406;-4.514;2023-06-14T00:01:14;18.68;76.60
73750;SHT30;62058;48.406;-4.514;2023-06-14T00:03:39;18.65;77.45
73750;SHT30;62058;48.406;-4.514;2023-06-14T00:06:04;18.59;77.77
73750;SHT30;62058;48.406;-4.514;2023-06-14T00:08:30;18.58;78.03
73750;SHT30;62058;48.406;-4.514;2023-06-14T00:10:55;18.55;77.15
73750;SHT30;62058;48.406;-4.514;2023-06-14T00:13:21;18.58;77.38
73750;SHT30;62058;48.406;-4.514;2023-06-14T00:15:46;18.56;78.42
73750;SHT30;62058;48.406;-4.514;2023-06-14T00:18:12;18.53;77.59
73750;SHT30;62058;48.406;-4.514;2023-06-14T00:20:38;18.55;77.70
73750;SHT30;62058;48.406;-4.514;2023-06-14T00:23:04;18.53;78.13
73750;SHT30;62058;48.406;-4.514;2023-06-14T00:25:30;18.41;79.26
73750;SHT30;62058;48.406;-4.514;2023-06-14T00:27:56;18.32;78.58
73750;SHT30;62058;48.406;-4.514;2023-06-14T00:30:22;18.29;78.90
73750;SHT30;62058;48.406;-4.514;2023-06-14T00:32:48;18.32;79.31
73750;SHT30;62058;48.406;-4.514;2023-06-14T00:35:14;18.39;79.02
73750;SHT30;62058;48.406;-4.514;2023-06-14T00:37:40;18.38;79.69
73750;SHT30;62058;48.406;-4.514;2023-06-14T00:40:06;18.41;78.97
73750;SHT30;62058;48.406;-4.514;2023-06-14T00:42:31;18.42;78.83
73750;SHT30;62058;48.406;-4.514;2023-06-14T00:44:57;18.47;78.06
73750;SHT30;62058;48.406;-4.514;2023-06-14T00:47:22;18.42;79.78
73750;SHT30;62058;48.406;-4.514;2023-06-14T00:49:49;18.39;78.71
73750;SHT30;62058;48.406;-4.514;2023-06-14T00:52:16;18.37;78.90
73750;SHT30;62058;48.406;-4.514;2023-06-14T00:54:42;18.37;79.68
73750;SHT30;62058;48.406;-4.514;2023-06-14T00:57:09;18.38;79.00
73750;SHT30;62058;48.406;-4.514;2023-06-14T00:59:41;18.38;78.93
73750;SHT30;62058;48.406;-4.514;2023-06-14T01:02:07;18.35;78.86
73750;SHT30;62058;48.406;-4.514;2023-06-14T01:04:33;18.34;78.69
73750;SHT30;62058;48.406;-4.514;2023-06-14T01:07:13;18.31;79.07
73750;SHT30;62058;48.406;-4.514;2023-06-14T01:15:33;18.19;79.74
73750;SHT30;62058;48.406;-4.514;2023-06-14T01:17:59;18.18;79.30
73750;SHT30;62058;48.406;-4.514;2023-06-14T01:20:29;18.22;79.45
73750;SHT30;62058;48.406;-4.514;2023-06-14T01:22:56;18.24;79.25
73750;SHT30;62058;48.406;-4.514;2023-06-14T01:25:22;18.25;79.41
73750;SHT30;62058;48.406;-4.514;2023-06-14T01:27:54;18.25;79.58
73750;SHT30;62058;48.406;-4.514;2023-06-14T01:30:21;18.27;79.42
73750;SHT30;62058;48.406;-4.514;2023-06-14T01:32:49;18.28;80.27
73750;SHT30;62058;48.406;-4.514;2023-06-14T01:35:15;18.28;79.63
73750;SHT30;62058;48.406;-4.514;2023-06-14T01:37:43;18.27;79.31
73750;SHT30;62058;48.406;-4.514;2023-06-14T01:40:09;18.28;79.79
73750;SHT30;62058;48.406;-4.514;2023-06-14T01:42:36;18.27;79.65
73750;SHT30;62058;48.406;-4.514;2023-06-14T01:45:06;18.24;80.56
73750;SHT30;62058;48.406;-4.514;2023-06-14T01:47:33;18.22;80.26
73750;SHT30;62058;48.406;-4.514;2023-06-14T01:49:59;18.24;80.90
73750;SHT30;62058;48.406;-4.514;2023-06-14T01:52:25;18.24;80.69
73750;SHT30;62058;48.406;-4.514;2023-06-14T01:54:50;18.25;80.45
73750;SHT30;62058;48.406;-4.514;2023-06-14T01:57:16;18.27;81.34
73750;SHT30;62058;48.406;-4.514;2023-06-14T01:59:41;18.31;80.27
73750;SHT30;62058;48.406;-4.514;2023-06-14T02:02:07;18.27;80.69
73750;SHT30;62058;48.406;-4.514;2023-06-14T02:04:32;18.28;80.37
73750;SHT30;62058;48.406;-4.514;2023-06-14T02:06:58;18.27;80.92
73750;SHT30;62058;48.406;-4.514;2023-06-14T02:09:24;18.24;81.40
73750;SHT30;62058;48.406;-4.514;2023-06-14T02:11:49;18.24;81.54
73750;SHT30;62058;48.406;-4.514;2023-06-14T02:14:14;18.22;81.26
73750;SHT30;62058;48.406;-4.514;2023-06-14T02:16:42;18.22;80.74
73750;SHT30;62058;48.406;-4.514;2023-06-14T02:19:14;18.18;80.98
73750;SHT30;62058;48.406;-4.514;2023-06-14T02:21:39;18.15;81.18
73750;SHT30;62058;48.406;-4.514;2023-06-14T02:24:05;18.14;81.55
73750;SHT30;62058;48.406;-4.514;2023-06-14T02:26:31;18.12;82.20
73750;SHT30;62058;48.406;-4.514;2023-06-14T02:28:57;18.12;81.70
73750;SHT30;62058;48.406;-4.514;2023-06-14T02:31:22;18.07;81.31
73750;SHT30;62058;48.406;-4.514;2023-06-14T02:33:47;18.05;81.43
73750;SHT30;62058;48.406;-4.514;2023-06-14T02:36:13;18.07;82.00
73750;SHT30;62058;48.406;-4.514;2023-06-14T02:38:38;18.07;81.45
73750;SHT30;62058;48.406;-4.514;2023-06-14T02:41:03;18.05;81.54
73750;SHT30;62058;48.406;-4.514;2023-06-14T02:43:29;18.04;81.48
73750;SHT30;62058;48.406;-4.514;2023-06-14T02:45:55;18.05;81.66
73750;SHT30;62058;48.406;-4.514;2023-06-14T02:48:20;18.10;81.30
73750;SHT30;62058;48.406;-4.514;2023-06-14T02:50:45;18.08;81.95
73750;SHT30;62058;48.406;-4.514;2023-06-14T02:53:11;18.04;82.06
73750;SHT30;62058;48.406;-4.514;2023-06-14T02:55:37;18.04;82.08
73750;SHT30;62058;48.406;-4.514;2023-06-14T02:58:05;18.05;82.77
73750;SHT30;62058;48.406;-4.514;2023-06-14T03:00:30;17.98;82.43
73750;SHT30;62058;48.406;-4.514;2023-06-14T03:02:56;17.97;82.41
73750;SHT30;62058;48.406;-4.514;2023-06-14T03:05:21;17.93;82.30
73750;SHT30;62058;48.406;-4.514;2023-06-14T03:07:47;17.93;82.60
73750;SHT30;62058;48.406;-4.514;2023-06-14T03:10:12;17.93;83.27
73750;SHT30;62058;48.406;-4.514;2023-06-14T03:12:38;17.91;82.58
73750;SHT30;62058;48.406;-4.514;2023-06-14T03:15:04;17.94;82.60
73750;SHT30;62058;48.406;-4.514;2023-06-14T03:17:30;17.94;82.54
73750;SHT30;62058;48.406;-4.514;2023-06-14T03:19:59;17.90;83.12
73750;SHT30;62058;48.406;-4.514;2023-06-14T03:22:24;17.90;82.80
73750;SHT30;62058;48.406;-4.514;2023-06-14T03:24:51;17.84;82.77
73750;SHT30;62058;48.406;-4.514;2023-06-14T03:27:17;17.81;83.01
73750;SHT30;62058;48.406;-4.514;2023-06-14T03:29:43;17.78;82.98
73750;SHT30;62058;48.406;-4.514;2023-06-14T03:32:09;17.81;82.65
73750;SHT30;62058;48.406;-4.514;2023-06-14T03:34:34;17.86;82.86
73750;SHT30;62058;48.406;-4.514;2023-06-14T03:37:00;17.86;82.73
73750;SHT30;62058;48.406;-4.514;2023-06-14T03:39:25;17.84;83.45
73750;SHT30;62058;48.406;-4.514;2023-06-14T03:41:51;17.86;82.62
73750;SHT30;62058;48.406;-4.514;2023-06-14T03:44:17;17.88;82.82
73750;SHT30;62058;48.406;-4.514;2023-06-14T03:46:44;17.90;82.81
73750;SHT30;62058;48.406;-4.514;2023-06-14T03:49:10;17.91;82.77
73750;SHT30;62058;48.406;-4.514;2023-06-14T03:51:36;17.97;82.55
73750;SHT30;62058;48.406;-4.514;2023-06-14T03:54:02;17.90;83.04
73750;SHT30;62058;48.406;-4.514;2023-06-14T03:56:27;17.84;82.69
73750;SHT30;62058;48.406;-4.514;2023-06-14T03:58:53;17.81;83.15
73750;SHT30;62058;48.406;-4.514;2023-06-14T04:01:18;17.83;82.95
73750;SHT30;62058;48.406;-4.514;2023-06-14T04:03:43;17.84;82.80
73750;SHT30;62058;48.406;-4.514;2023-06-14T04:06:09;17.90;83.06
73750;SHT30;62058;48.406;-4.514;2023-06-14T04:08:34;17.87;82.88
73750;SHT30;62058;48.406;-4.514;2023-06-14T04:11:00;17.93;82.86
73750;SHT30;62058;48.406;-4.514;2023-06-14T04:13:26;17.91;82.67
73750;SHT30;62058;48.406;-4.514;2023-06-14T04:15:51;17.93;83.02
73750;SHT30;62058;48.406;-4.514;2023-06-14T04:18:16;17.88;83.19
73750;SHT30;62058;48.406;-4.514;2023-06-14T04:20:43;17.81;84.11
73750;SHT30;62058;48.406;-4.514;2023-06-14T04:23:17;17.76;83.24
73750;SHT30;62058;48.406;-4.514;2023-06-14T04:25:46;17.76;84.12
73750;SHT30;62058;48.406;-4.514;2023-06-14T04:28:13;17.73;83.72
73750;SHT30;62058;48.406;-4.514;2023-06-14T04:30:42;17.73;83.58
73750;SHT30;62058;48.406;-4.514;2023-06-14T04:33:08;17.71;84.18
73750;SHT30;62058;48.406;-4.514;2023-06-14T04:35:35;17.71;83.56
73750;SHT30;62058;48.406;-4.514;2023-06-14T04:38:02;17.77;83.59
73750;SHT30;62058;48.406;-4.514;2023-06-14T04:40:30;17.78;83.67
73750;SHT30;62058;48.406;-4.514;2023-06-14T04:42:56;17.86;83.40
73750;SHT30;62058;48.406;-4.514;2023-06-14T04:45:22;17.83;83.68
73750;SHT30;62058;48.406;-4.514;2023-06-14T04:47:49;17.86;83.42
73750;SHT30;62058;48.406;-4.514;2023-06-14T04:50:15;17.84;83.19
73750;SHT30;62058;48.406;-4.514;2023-06-14T04:52:41;17.83;83.54
73750;SHT30;62058;48.406;-4.514;2023-06-14T04:55:08;17.87;83.32
73750;SHT30;62058;48.406;-4.514;2023-06-14T04:57:33;17.83;82.96
73750;SHT30;62058;48.406;-4.514;2023-06-14T05:00:00;17.87;83.02
73750;SHT30;62058;48.406;-4.514;2023-06-14T05:02:32;17.91;82.89
73750;SHT30;62058;48.406;-4.514;2023-06-14T05:04:59;17.94;82.57
73750;SHT30;62058;48.406;-4.514;2023-06-14T05:07:26;17.98;82.36
73750;SHT30;62058;48.406;-4.514;2023-06-14T05:09:52;18.00;82.25
73750;SHT30;62058;48.406;-4.514;2023-06-14T05:12:17;18.02;82.13
73750;SHT30;62058;48.406;-4.514;2023-06-14T05:14:44;17.93;82.26
73750;SHT30;62058;48.406;-4.514;2023-06-14T05:17:10;17.98;82.23
73750;SHT30;62058;48.406;-4.514;2023-06-14T05:19:35;18.00;82.21
73750;SHT30;62058;48.406;-4.514;2023-06-14T05:22:00;17.98;82.24
73750;SHT30;62058;48.406;-4.514;2023-06-14T05:24:28;18.00;82.12
73750;SHT30;62058;48.406;-4.514;2023-06-14T05:26:55;17.96;82.50
73750;SHT30;62058;48.406;-4.514;2023-06-14T05:29:21;18.01;82.20
73750;SHT30;62058;48.406;-4.514;2023-06-14T05:31:46;18.07;82.58
73750;SHT30;62058;48.406;-4.514;2023-06-14T05:34:12;18.12;82.10
73750;SHT30;62058;48.406;-4.514;2023-06-14T05:36:37;18.17;82.27
73750;SHT30;62058;48.406;-4.514;2023-06-14T05:39:03;18.22;81.93
73750;SHT30;62058;48.406;-4.514;2023-06-14T05:41:29;18.34;81.51
73750;SHT30;62058;48.406;-4.514;2023-06-14T05:43:55;18.29;81.37
73750;SHT30;62058;48.406;-4.514;2023-06-14T05:46:21;18.32;81.41
73750;SHT30;62058;48.406;-4.514;2023-06-14T05:48:55;18.38;81.45
73750;SHT30;62058;48.406;-4.514;2023-06-14T05:51:21;18.42;81.32
73750;SHT30;62058;48.406;-4.514;2023-06-14T05:53:47;18.48;81.25
73750;SHT30;62058;48.406;-4.514;2023-06-14T05:56:17;18.55;81.09
73750;SHT30;62058;48.406;-4.514;2023-06-14T05:58:43;18.52;81.33
73750;SHT30;62058;48.406;-4.514;2023-06-14T06:01:09;18.56;81.14
73750;SHT30;62058;48.406;-4.514;2023-06-14T06:03:34;18.68;81.11
73750;SHT30;62058;48.406;-4.514;2023-06-14T06:06:00;18.75;80.90
73750;SHT30;62058;48.406;-4.514;2023-06-14T06:08:26;18.88;80.63
73750;SHT30;62058;48.406;-4.514;2023-06-14T06:10:52;18.80;80.43
73750;SHT30;62058;48.406;-4.514;2023-06-14T06:13:17;18.66;80.69
73750;SHT30;62058;48.406;-4.514;2023-06-14T06:15:43;18.65;81.12
73750;SHT30;62058;48.406;-4.514;2023-06-14T06:18:08;18.68;81.06
73750;SHT30;62058;48.406;-4.514;2023-06-14T06:20:34;18.75;80.86
73750;SHT30;62058;48.406;-4.514;2023-06-14T06:23:01;18.82;80.87
73750;SHT30;62058;48.406;-4.514;2023-06-14T06:25:26;18.90;80.95
73750;SHT30;62058;48.406;-4.514;2023-06-14T06:27:55;18.98;80.88
73750;SHT30;62058;48.406;-4.514;2023-06-14T06:30:24;18.93;80.86
73750;SHT30;62058;48.406;-4.514;2023-06-14T06:32:50;18.95;80.76
73750;SHT30;62058;48.406;-4.514;2023-06-14T06:35:16;18.99;80.94
73750;SHT30;62058;48.406;-4.514;2023-06-14T06:37:42;19.00;80.77
73750;SHT30;62058;48.406;-4.514;2023-06-14T06:40:08;18.98;80.88
73750;SHT30;62058;48.406;-4.514;2023-06-14T06:42:34;18.99;80.92
73750;SHT30;62058;48.406;-4.514;2023-06-14T06:44:59;19.02;80.75
73750;SHT30;62058;48.406;-4.514;2023-06-14T06:47:25;19.10;80.22
73750;SHT30;62058;48.406;-4.514;2023-06-14T06:49:50;19.17;79.97
73750;SHT30;62058;48.406;-4.514;2023-06-14T06:52:16;19.16;80.00
73750;SHT30;62058;48.406;-4.514;2023-06-14T06:54:42;19.22;79.83
73750;SHT30;62058;48.406;-4.514;2023-06-14T06:57:07;19.33;79.41
73750;SHT30;62058;48.406;-4.514;2023-06-14T06:59:33;19.31;79.33
73750;SHT30;62058;48.406;-4.514;2023-06-14T07:01:59;19.33;79.49
73750;SHT30;62058;48.406;-4.514;2023-06-14T07:04:24;19.31;79.57
73750;SHT30;62058;48.406;-4.514;2023-06-14T07:06:50;19.26;79.53
73750;SHT30;62058;48.406;-4.514;2023-06-14T07:09:15;19.26;79.60
73750;SHT30;62058;48.406;-4.514;2023-06-14T07:11:42;19.34;79.49
73750;SHT30;62058;48.406;-4.514;2023-06-14T07:14:08;19.40;79.40
73750;SHT30;62058;48.406;-4.514;2023-06-14T07:16:34;19.41;79.39
73750;SHT30;62058;48.406;-4.514;2023-06-14T07:18:59;19.50;79.26
73750;SHT30;62058;48.406;-4.514;2023-06-14T07:21:25;19.57;79.13
73750;SHT30;62058;48.406;-4.514;2023-06-14T07:23:54;19.68;78.83
73750;SHT30;62058;48.406;-4.514;2023-06-14T07:26:20;19.68;78.57
73750;SHT30;62058;48.406;-4.514;2023-06-14T07:28:47;19.63;78.67
73750;SHT30;62058;48.406;-4.514;2023-06-14T07:31:13;19.67;78.50
73750;SHT30;62058;48.406;-4.514;2023-06-14T07:33:39;19.77;78.12
73750;SHT30;62058;48.406;-4.514;2023-06-14T07:36:05;19.92;78.11
73750;SHT30;62058;48.406;-4.514;2023-06-14T07:38:30;20.06;77.54
73750;SHT30;62058;48.406;-4.514;2023-06-14T07:40:56;20.15;77.31
73750;SHT30;62058;48.406;-4.514;2023-06-14T07:43:21;20.25;76.37
73750;SHT30;62058;48.406;-4.514;2023-06-14T07:45:46;20.24;76.46
73750;SHT30;62058;48.406;-4.514;2023-06-14T07:48:12;20.21;76.63
73750;SHT30;62058;48.406;-4.514;2023-06-14T07:50:37;20.32;76.80
73750;SHT30;62058;48.406;-4.514;2023-06-14T07:53:03;20.33;76.63
73750;SHT30;62058;48.406;-4.514;2023-06-14T07:55:28;20.38;76.70
73750;SHT30;62058;48.406;-4.514;2023-06-14T07:57:54;20.43;76.53
73750;SHT30;62058;48.406;-4.514;2023-06-14T08:00:20;20.57;76.72
73750;SHT30;62058;48.406;-4.514;2023-06-14T08:02:45;20.67;76.44
73750;SHT30;62058;48.406;-4.514;2023-06-14T08:05:11;20.81;76.20
73750;SHT30;62058;48.406;-4.514;2023-06-14T08:07:38;20.87;75.77
73750;SHT30;62058;48.406;-4.514;2023-06-14T08:10:05;20.93;75.63
73750;SHT30;62058;48.406;-4.514;2023-06-14T08:12:31;20.93;75.33
73750;SHT30;62058;48.406;-4.514;2023-06-14T08:14:57;20.84;75.69
73750;SHT30;62058;48.406;-4.514;2023-06-14T08:17:22;20.94;75.74
73750;SHT30;62058;48.406;-4.514;2023-06-14T08:19:47;20.96;75.57
73750;SHT30;62058;48.406;-4.514;2023-06-14T08:22:13;20.94;75.47
73750;SHT30;62058;48.406;-4.514;2023-06-14T08:24:38;20.89;75.32
73750;SHT30;62058;48.406;-4.514;2023-06-14T08:27:05;20.91;75.44
73750;SHT30;62058;48.406;-4.514;2023-06-14T08:29:31;20.99;75.13
73750;SHT30;62058;48.406;-4.514;2023-06-14T08:31:56;20.96;75.08
73750;SHT30;62058;48.406;-4.514;2023-06-14T08:34:22;21.03;75.28
73750;SHT30;62058;48.406;-4.514;2023-06-14T08:36:51;21.14;74.96
73750;SHT30;62058;48.406;-4.514;2023-06-14T08:39:17;21.20;74.70
73750;SHT30;62058;48.406;-4.514;2023-06-14T08:41:44;21.24;74.63
73750;SHT30;62058;48.406;-4.514;2023-06-14T08:44:13;21.23;74.92
73750;SHT30;62058;48.406;-4.514;2023-06-14T08:46:38;21.26;74.91
73750;SHT30;62058;48.406;-4.514;2023-06-14T08:49:04;21.30;74.94
73750;SHT30;62058;48.406;-4.514;2023-06-14T08:51:35;21.31;74.96
73750;SHT30;62058;48.406;-4.514;2023-06-14T08:54:01;21.48;74.53
73750;SHT30;62058;48.406;-4.514;2023-06-14T08:56:30;21.58;74.42
73750;SHT30;62058;48.406;-4.514;2023-06-14T08:58:57;21.62;74.05
73750;SHT30;62058;48.406;-4.514;2023-06-14T09:01:26;21.68;74.24
73750;SHT30;62058;48.406;-4.514;2023-06-14T09:03:52;21.75;74.11
73750;SHT30;62058;48.406;-4.514;2023-06-14T09:06:20;21.86;73.84
73750;SHT30;62058;48.406;-4.514;2023-06-14T09:08:48;22.03;73.40
73750;SHT30;62058;48.406;-4.514;2023-06-14T09:11:16;22.19;72.95
73750;SHT30;62058;48.406;-4.514;2023-06-14T09:13:44;22.26;71.37
73750;SHT30;62058;48.406;-4.514;2023-06-14T09:16:10;22.19;71.47
73750;SHT30;62058;48.406;-4.514;2023-06-14T09:18:43;22.30;71.55
73750;SHT30;62058;48.406;-4.514;2023-06-14T09:21:14;22.40;71.44
73750;SHT30;62058;48.406;-4.514;2023-06-14T09:23:41;22.44;71.22
73750;SHT30;62058;48.406;-4.514;2023-06-14T09:26:17;22.59;71.29
73750;SHT30;62058;48.406;-4.514;2023-06-14T09:28:48;22.66;70.69
73750;SHT30;62058;48.406;-4.514;2023-06-14T09:31:15;22.60;70.33
73750;SHT30;62058;48.406;-4.514;2023-06-14T09:33:51;22.49;70.49
73750;SHT30;62058;48.406;-4.514;2023-06-14T09:36:17;22.46;70.91
73750;SHT30;62058;48.406;-4.514;2023-06-14T09:38:51;22.50;71.13
73750;SHT30;62058;48.406;-4.514;2023-06-14T09:41:17;22.44;70.75
73750;SHT30;62058;48.406;-4.514;2023-06-14T09:43:43;22.54;70.66
73750;SHT30;62058;48.406;-4.514;2023-06-14T09:46:10;22.47;70.97
73750;SHT30;62058;48.406;-4.514;2023-06-14T09:48:36;22.37;71.16
73750;SHT30;62058;48.406;-4.514;2023-06-14T09:51:01;22.43;71.16
73750;SHT30;62058;48.406;-4.514;2023-06-14T09:53:29;22.53;70.61
73750;SHT30;62058;48.406;-4.514;2023-06-14T09:55:57;22.63;70.94
73750;SHT30;62058;48.406;-4.514;2023-06-14T09:58:26;22.80;70.65
73750;SHT30;62058;48.406;-4.514;2023-06-14T10:00:54;22.97;70.15
73750;SHT30;62058;48.406;-4.514;2023-06-14T10:03:26;23.15;68.83
73750;SHT30;62058;48.406;-4.514;2023-06-14T10:05:55;23.03;68.73
73750;SHT30;62058;48.406;-4.514;2023-06-14T10:08:25;22.80;69.51
73750;SHT30;62058;48.406;-4.514;2023-06-14T10:10:55;22.83;69.34
73750;SHT30;62058;48.406;-4.514;2023-06-14T10:13:21;22.90;69.38
73750;SHT30;62058;48.406;-4.514;2023-06-14T10:18:35;22.78;69.74
73750;SHT30;62058;48.406;-4.514;2023-06-14T10:21:26;22.74;69.88
73750;SHT30;62058;48.406;-4.514;2023-06-14T10:23:55;22.63;70.05
73750;SHT30;62058;48.406;-4.514;2023-06-14T10:26:23;22.24;70.36
73750;SHT30;62058;48.406;-4.514;2023-06-14T10:29:00;22.44;70.45
73750;SHT30;62058;48.406;-4.514;2023-06-14T10:31:45;22.52;70.15
73750;SHT30;62058;48.406;-4.514;2023-06-14T10:34:12;22.78;69.66
73750;SHT30;62058;48.406;-4.514;2023-06-14T10:36:42;23.03;69.38
73750;SHT30;62058;48.406;-4.514;2023-06-14T10:39:15;23.28;69.07
73750;SHT30;62058;48.406;-4.514;2023-06-14T10:41:52;23.45;68.27
73750;SHT30;62058;48.406;-4.514;2023-06-14T10:46:47;23.82;66.45
73750;SHT30;62058;48.406;-4.514;2023-06-14T10:49:16;23.69;66.94
73750;SHT30;62058;48.406;-4.514;2023-06-14T10:51:45;23.79;66.37
73750;SHT30;62058;48.406;-4.514;2023-06-14T10:54:13;23.59;67.11
73750;SHT30;62058;48.406;-4.514;2023-06-14T10:56:52;23.69;67.08
73750;SHT30;62058;48.406;-4.514;2023-06-14T10:59:19;23.86;66.43
73750;SHT30;62058;48.406;-4.514;2023-06-14T11:01:53;23.83;66.01
73750;SHT30;62058;48.406;-4.514;2023-06-14T11:04:31;23.80;65.09
73750;SHT30;62058;48.406;-4.514;2023-06-14T11:07:30;23.93;65.28
73750;SHT30;62058;48.406;-4.514;2023-06-14T11:12:36;24.90;63.95
73750;SHT30;62058;48.406;-4.514;2023-06-14T11:15:05;25.15;63.84
73750;SHT30;62058;48.406;-4.514;2023-06-14T11:17:30;25.21;63.04
73750;SHT30;62058;48.406;-4.514;2023-06-14T11:20:13;25.35;63.31
73750;SHT30;62058;48.406;-4.514;2023-06-14T11:22:45;25.43;62.88
73750;SHT30;62058;48.406;-4.514;2023-06-14T11:25:14;25.21;62.24
73750;SHT30;62058;48.406;-4.514;2023-06-14T11:27:42;25.26;62.36
73750;SHT30;62058;48.406;-4.514;2023-06-14T11:30:08;25.10;62.48
73750;SHT30;62058;48.406;-4.514;2023-06-14T11:32:35;24.88;62.26
73750;SHT30;62058;48.406;-4.514;2023-06-14T11:35:01;24.90;62.84
73750;SHT30;62058;48.406;-4.514;2023-06-14T11:37:27;25.26;62.55
73750;SHT30;62058;48.406;-4.514;2023-06-14T11:39:57;25.61;61.72
73750;SHT30;62058;48.406;-4.514;2023-06-14T11:42:23;25.69;62.05
73750;SHT30;62058;48.406;-4.514;2023-06-14T11:44:49;25.75;61.54
73750;SHT30;62058;48.406;-4.514;2023-06-14T11:47:15;25.65;61.40
73750;SHT30;62058;48.406;-4.514;2023-06-14T11:49:40;25.83;61.13
73750;SHT30;62058;48.406;-4.514;2023-06-14T11:52:07;25.86;61.01
73750;SHT30;62058;48.406;-4.514;2023-06-14T11:54:32;25.93;61.09
73750;SHT30;62058;48.406;-4.514;2023-06-14T11:56:58;26.14;60.66
73750;SHT30;62058;48.406;-4.514;2023-06-14T11:59:24;26.36;59.93
73750;SHT30;62058;48.406;-4.514;2023-06-14T12:01:53;26.48;60.16
73750;SHT30;62058;48.406;-4.514;2023-06-14T12:04:24;26.52;59.21
73750;SHT30;62058;48.406;-4.514;2023-06-14T12:06:52;26.72;59.60
73750;SHT30;62058;48.406;-4.514;2023-06-14T12:09:21;26.84;59.22
73750;SHT30;62058;48.406;-4.514;2023-06-14T12:11:59;26.96;59.38
73750;SHT30;62058;48.406;-4.514;2023-06-14T12:14:30;27.08;58.52
73750;SHT30;62058;48.406;-4.514;2023-06-14T12:17:06;27.56;58.62
73750;SHT30;62058;48.406;-4.514;2023-06-14T12:19:42;27.40;57.56
73750;SHT30;62058;48.406;-4.514;2023-06-14T12:22:12;27.15;58.37
73750;SHT30;62058;48.406;-4.514;2023-06-14T12:24:38;27.30;58.95
73750;SHT30;62058;48.406;-4.514;2023-06-14T12:27:05;27.50;58.84
73750;SHT30;62058;48.406;-4.514;2023-06-14T12:29:31;27.76;58.26
73750;SHT30;62058;48.406;-4.514;2023-06-14T12:31:57;28.40;57.34
73750;SHT30;62058;48.406;-4.514;2023-06-14T12:34:23;28.54;56.78
73750;SHT30;62058;48.406;-4.514;2023-06-14T12:36:50;28.51;56.77
73750;SHT30;62058;48.406;-4.514;2023-06-14T12:39:16;28.52;56.09
73750;SHT30;62058;48.406;-4.514;2023-06-14T12:41:41;28.85;55.79
73750;SHT30;62058;48.406;-4.514;2023-06-14T12:44:07;29.07;54.75
73750;SHT30;62058;48.406;-4.514;2023-06-14T12:46:33;29.23;54.49
73750;SHT30;62058;48.406;-4.514;2023-06-14T12:49:00;29.26;53.90
73750;SHT30;62058;48.406;-4.514;2023-06-14T12:51:25;29.43;53.32
73750;SHT30;62058;48.406;-4.514;2023-06-14T12:53:51;29.68;53.73
73750;SHT30;62058;48.406;-4.514;2023-06-14T12:56:17;30.01;52.07
73750;SHT30;62058;48.406;-4.514;2023-06-14T12:58:42;30.05;53.10
73750;SHT30;62058;48.406;-4.514;2023-06-14T13:01:08;30.04;52.05
73750;SHT30;62058;48.406;-4.514;2023-06-14T13:03:33;30.14;53.10
73750;SHT30;62058;48.406;-4.514;2023-06-14T13:06:00;30.12;51.88
73750;SHT30;62058;48.406;-4.514;2023-06-14T13:08:26;30.17;50.71
73750;SHT30;62058;48.406;-4.514;2023-06-14T13:10:52;30.12;51.71
73750;SHT30;62058;48.406;-4.514;2023-06-14T13:13:18;30.36;50.71
73750;SHT30;62058;48.406;-4.514;2023-06-14T13:15:43;30.49;50.74
73750;SHT30;62058;48.406;-4.514;2023-06-14T13:18:10;30.83;50.21
73750;SHT30;62058;48.406;-4.514;2023-06-14T13:20:38;31.44;49.09
73750;SHT30;62058;48.406;-4.514;2023-06-14T13:23:04;31.60;49.29
73750;SHT30;62058;48.406;-4.514;2023-06-14T13:25:31;31.77;49.64
73750;SHT30;62058;48.406;-4.514;2023-06-14T13:27:56;32.11;48.70
73750;SHT30;62058;48.406;-4.514;2023-06-14T13:30:22;31.96;48.39
73750;SHT30;62058;48.406;-4.514;2023-06-14T13:32:47;31.98;48.78
73750;SHT30;62058;48.406;-4.514;2023-06-14T13:35:13;32.02;48.78
73750;SHT30;62058;48.406;-4.514;2023-06-14T13:37:38;32.18;47.29
73750;SHT30;62058;48.406;-4.514;2023-06-14T13:40:04;32.45;48.23
73750;SHT30;62058;48.406;-4.514;2023-06-14T13:42:30;32.48;47.54
73750;SHT30;62058;48.406;-4.514;2023-06-14T13:44:58;32.63;48.30
73750;SHT30;62058;48.406;-4.514;2023-06-14T13:47:23;32.97;47.07
73750;SHT30;62058;48.406;-4.514;2023-06-14T13:49:48;33.13;46.85
73750;SHT30;62058;48.406;-4.514;2023-06-14T13:52:14;33.34;45.09
73750;SHT30;62058;48.406;-4.514;2023-06-14T13:54:39;33.79;45.71
73750;SHT30;62058;48.406;-4.514;2023-06-14T13:57:05;34.18;44.35
73750;SHT30;62058;48.406;-4.514;2023-06-14T13:59:31;34.11;45.08
73750;SHT30;62058;48.406;-4.514;2023-06-14T14:01:57;34.38;44.15
73750;SHT30;62058;48.406;-4.514;2023-06-14T14:04:22;34.49;43.59
73750;SHT30;62058;48.406;-4.514;2023-06-14T14:06:48;34.73;43.19
73750;SHT30;62058;48.406;-4.514;2023-06-14T14:09:13;35.23;43.45
73750;SHT30;62058;48.406;-4.514;2023-06-14T14:11:39;35.34;42.83
73750;SHT30;62058;48.406;-4.514;2023-06-14T14:14:06;35.53;41.61
73750;SHT30;62058;48.406;-4.514;2023-06-14T14:16:32;35.85;42.34
73750;SHT30;62058;48.406;-4.514;2023-06-14T14:18:57;36.53;42.75
73750;SHT30;62058;48.406;-4.514;2023-06-14T14:21:23;36.88;41.34
73750;SHT30;62058;48.406;-4.514;2023-06-14T14:23:48;37.28;40.74
73750;SHT30;62058;48.406;-4.514;2023-06-14T14:26:14;37.61;40.46
73750;SHT30;62058;48.406;-4.514;2023-06-14T14:28:41;37.96;39.15
73750;SHT30;62058;48.406;-4.514;2023-06-14T14:31:06;38.05;38.99
73750;SHT30;62058;48.406;-4.514;2023-06-14T14:33:32;37.98;39.98
73750;SHT30;62058;48.406;-4.514;2023-06-14T14:35:57;37.78;39.03
73750;SHT30;62058;48.406;-4.514;2023-06-14T14:38:23;37.61;39.85
73750;SHT30;62058;48.406;-4.514;2023-06-14T14:40:48;38.06;40.10
73750;SHT30;62058;48.406;-4.514;2023-06-14T14:43:13;38.48;38.69
73750;SHT30;62058;48.406;-4.514;2023-06-14T14:45:39;39.17;38.64
73750;SHT30;62058;48.406;-4.514;2023-06-14T14:48:05;39.64;37.54
73750;SHT30;62058;48.406;-4.514;2023-06-14T14:50:30;40.56;36.43
73750;SHT30;62058;48.406;-4.514;2023-06-14T14:52:56;41.24;34.47
73750;SHT30;62058;48.406;-4.514;2023-06-14T14:55:21;41.52;34.32
73750;SHT30;62058;48.406;-4.514;2023-06-14T14:57:47;41.41;34.97
73750;SHT30;62058;48.406;-4.514;2023-06-14T15:00:13;41.27;34.89
73750;SHT30;62058;48.406;-4.514;2023-06-14T15:02:39;41.10;35.27
73750;SHT30;62058;48.406;-4.514;2023-06-14T15:05:04;40.96;34.70
73750;SHT30;62058;48.406;-4.514;2023-06-14T15:07:30;40.86;34.62
73750;SHT30;62058;48.406;-4.514;2023-06-14T15:09:57;41.34;33.30
73750;SHT30;62058;48.406;-4.514;2023-06-14T15:12:22;41.62;33.48
73750;SHT30;62058;48.406;-4.514;2023-06-14T15:14:52;42.23;33.89
73750;SHT30;62058;48.406;-4.514;2023-06-14T15:17:18;42.49;34.08
73750;SHT30;62058;48.406;-4.514;2023-06-14T15:19:45;42.80;32.92
73750;SHT30;62058;48.406;-4.514;2023-06-14T15:22:11;42.51;32.90
73750;SHT30;62058;48.406;-4.514;2023-06-14T15:24:36;42.60;32.97
73750;SHT30;62058;48.406;-4.514;2023-06-14T15:27:01;42.80;32.91